sensor_id;sensor_type;location;lat;lon;timestamp;temperature;humidity
42019;DHT22;27703;51.980;5.848;2023-09-19T00:02:17;15.70;99.90
42019;DHT22;27703;51.980;5.848;2023-09-19T00:04:43;15.70;99.90
42019;DHT22;27703;51.980;5.848;2023-09-19T00:07:08;15.70;99.90
42019;DHT22;27703;51.980;5.848;2023-09-19T00:09:34;15.70;99.90
42019;DHT22;27703;51.980;5.848;2023-09-19T00:12:06;15.70;99.90
42019;DHT22;27703;51.980;5.848;2023-09-19T00:14:32;15.70;99.90
42019;DHT22;27703;51.980;5.848;2023-09-19T00:17:01;15.60;99.90
42019;DHT22;27703;51.980;5.848;2023-09-19T00:19:33;15.70;99.90
42019;DHT22;27703;51.980;5.848;2023-09-19T00:21:58;15.70;99.90
42019;DHT22;27703;51.980;5.848;2023-09-19T00:24:24;15.70;99.90
42019;DHT22;27703;51.980;5.848;2023-09-19T00:26:49;15.70;99.90
42019;DHT22;27703;51.980;5.848;2023-09-19T00:29:15;15.70;99.90
42019;DHT22;27703;51.980;5.848;2023-09-19T00:31:44;15.70;99.90
42019;DHT22;27703;51.980;5.848;2023-09-19T00:34:10;15.70;99.90
42019;DHT22;27703;51.980;5.848;2023-09-19T00:36:37;15.80;99.90
42019;DHT22;27703;51.980;5.848;2023-09-19T00:39:05;15.70;99.90
42019;DHT22;27703;51.980;5.848;2023-09-19T00:41:34;15.80;99.90
42019;DHT22;27703;51.980;5.848;2023-09-19T00:44:01;15.80;99.90
42019;DHT22;27703;51.980;5.848;2023-09-19T00:46:27;15.80;99.90
42019;DHT22;27703;51.980;5.848;2023-09-19T00:48:53;15.80;99.90
42019;DHT22;27703;51.980;5.848;2023-09-19T00:51:20;15.80;99.90
42019;DHT22;27703;51.980;5.848;2023-09-19T00:53:47;15.80;99.90
42019;DHT22;27703;51.980;5.848;2023-09-19T00:56:14;15.80;99.90
42019;DHT22;27703;51.980;5.848;2023-09-19T00:58:40;15.80;99.90
42019;DHT22;27703;51.980;5.848;2023-09-19T01:01:06;15.80;99.90
42019;DHT22;27703;51.980;5.848;2023-09-19T01:03:37;15.80;99.90
42019;DHT22;27703;51.980;5.848;2023-09-19T01:06:02;15.80;99.90
42019;DHT22;27703;51.980;5.848;2023-09-19T01:08:28;15.80;99.90
42019;DHT22;27703;51.980;5.848;2023-09-19T01:11:20;15.80;99.90
42019;DHT22;27703;51.980;5.848;2023-09-19T01:17:00;15.70;99.90
42019;DHT22;27703;51.980;5.848;2023-09-19T01:22:42;15.60;99.90
42019;DHT22;27703;51.980;5.848;2023-09-19T01:25:33;15.70;99.90
42019;DHT22;27703;51.980;5.848;2023-09-19T01:30:44;15.60;99.90
42019;DHT22;27703;51.980;5.848;2023-09-19T01:33:11;15.60;99.90
42019;DHT22;27703;51.980;5.848;2023-09-19T01:35:40;15.60;99.90
42019;DHT22;27703;51.980;5.848;2023-09-19T01:38:08;15.60;99.90
42019;DHT22;27703;51.980;5.848;2023-09-19T01:40:42;15.60;99.90
42019;DHT22;27703;51.980;5.848;2023-09-19T01:51:05;15.60;99.90
42019;DHT22;27703;51.980;5.848;2023-09-19T01:54:00;15.60;99.90
42019;DHT22;27703;51.980;5.848;2023-09-19T01:57:03;15.60;99.90
42019;DHT22;27703;51.980;5.848;2023-09-19T01:59:37;15.60;99.90
42019;DHT22;27703;51.980;5.848;2023-09-19T02:02:07;15.60;99.90
42019;DHT22;27703;51.980;5.848;2023-09-19T02:04:34;15.60;99.90
42019;DHT22;27703;51.980;5.848;2023-09-19T02:07:03;15.50;99.90
42019;DHT22;27703;51.980;5.848;2023-09-19T02:09:31;15.50;99.90
42019;DHT22;27703;51.980;5.848;2023-09-19T02:12:01;15.50;99.90
42019;DHT22;27703;51.980;5.848;2023-09-19T02:14:27;15.40;99.90
42019;DHT22;27703;51.980;5.848;2023-09-19T02:16:55;15.40;99.90
42019;DHT22;27703;51.980;5.848;2023-09-19T02:19:21;15.40;99.90
42019;DHT22;27703;51.980;5.848;2023-09-19T02:21:47;15.30;99.90
42019;DHT22;27703;51.980;5.848;2023-09-19T02:24:14;15.30;99.90
42019;DHT22;27703;51.980;5.848;2023-09-19T02:26:41;15.30;99.90
42019;DHT22;27703;51.980;5.848;2023-09-19T02:29:06;15.20;99.90
42019;DHT22;27703;51.980;5.848;2023-09-19T02:31:32;15.20;99.90
42019;DHT22;27703;51.980;5.848;2023-09-19T02:33:57;15.10;99.90
42019;DHT22;27703;51.980;5.848;2023-09-19T02:36:23;15.10;99.90
42019;DHT22;27703;51.980;5.848;2023-09-19T02:38:49;15.10;99.90
42019;DHT22;27703;51.980;5.848;2023-09-19T02:41:14;15.00;99.90
42019;DHT22;27703;51.980;5.848;2023-09-19T02:43:40;15.00;99.90
42019;DHT22;27703;51.980;5.848;2023-09-19T02:46:06;14.90;99.90
42019;DHT22;27703;51.980;5.848;2023-09-19T02:48:32;14.90;99.90
42019;DHT22;27703;51.980;5.848;2023-09-19T02:50:57;14.90;99.90
42019;DHT22;27703;51.980;5.848;2023-09-19T02:53:23;14.90;99.90
42019;DHT22;27703;51.980;5.848;2023-09-19T02:55:49;14.90;99.90
42019;DHT22;27703;51.980;5.848;2023-09-19T02:58:15;14.80;99.90
42019;DHT22;27703;51.980;5.848;2023-09-19T03:00:41;14.80;99.90
42019;DHT22;27703;51.980;5.848;2023-09-19T03:03:08;14.80;99.90
42019;DHT22;27703;51.980;5.848;2023-09-19T03:05:34;14.80;99.90
42019;DHT22;27703;51.980;5.848;2023-09-19T03:08:00;14.80;99.90
42019;DHT22;27703;51.980;5.848;2023-09-19T03:10:26;14.80;99.90
42019;DHT22;27703;51.980;5.848;2023-09-19T03:12:53;14.70;99.90
42019;DHT22;27703;51.980;5.848;2023-09-19T03:15:18;14.70;99.90
42019;DHT22;27703;51.980;5.848;2023-09-19T03:17:45;14.70;99.90
42019;DHT22;27703;51.980;5.848;2023-09-19T03:20:11;14.60;99.90
42019;DHT22;27703;51.980;5.848;2023-09-19T03:22:38;14.60;99.90
42019;DHT22;27703;51.980;5.848;2023-09-19T03:25:06;14.60;99.90
42019;DHT22;27703;51.980;5.848;2023-09-19T03:27:34;14.50;99.90
42019;DHT22;27703;51.980;5.848;2023-09-19T03:30:00;14.50;99.90
42019;DHT22;27703;51.980;5.848;2023-09-19T03:32:25;14.50;99.90
42019;DHT22;27703;51.980;5.848;2023-09-19T03:34:52;14.40;99.90
42019;DHT22;27703;51.980;5.848;2023-09-19T03:37:17;14.40;99.90
42019;DHT22;27703;51.980;5.848;2023-09-19T03:39:43;14.40;99.90
42019;DHT22;27703;51.980;5.848;2023-09-19T03:42:08;14.40;99.90
42019;DHT22;27703;51.980;5.848;2023-09-19T03:44:34;14.40;99.90
42019;DHT22;27703;51.980;5.848;2023-09-19T03:47:00;14.40;99.90
42019;DHT22;27703;51.980;5.848;2023-09-19T03:49:25;14.30;99.90
42019;DHT22;27703;51.980;5.848;2023-09-19T03:51:51;14.30;99.90
42019;DHT22;27703;51.980;5.848;2023-09-19T03:54:17;14.30;99.90
42019;DHT22;27703;51.980;5.848;2023-09-19T03:56:43;14.30;99.90
42019;DHT22;27703;51.980;5.848;2023-09-19T03:59:09;14.30;99.90
42019;DHT22;27703;51.980;5.848;2023-09-19T04:01:35;14.30;99.90
42019;DHT22;27703;51.980;5.848;2023-09-19T04:04:00;14.30;99.90
42019;DHT22;27703;51.980;5.848;2023-09-19T04:06:33;14.20;99.90
42019;DHT22;27703;51.980;5.848;2023-09-19T04:09:00;14.20;99.90
42019;DHT22;27703;51.980;5.848;2023-09-19T04:11:26;14.20;99.90
42019;DHT22;27703;51.980;5.848;2023-09-19T04:13:52;14.20;99.90
42019;DHT22;27703;51.980;5.848;2023-09-19T04:16:18;14.20;99.90
42019;DHT22;27703;51.980;5.848;2023-09-19T04:18:43;14.10;99.90
42019;DHT22;27703;51.980;5.848;2023-09-19T04:21:09;14.20;99.90
42019;DHT22;27703;51.980;5.848;2023-09-19T04:23:34;14.10;99.90
42019;DHT22;27703;51.980;5.848;2023-09-19T04:26:00;14.10;99.90
42019;DHT22;27703;51.980;5.848;2023-09-19T04:28:26;14.10;99.90
42019;DHT22;27703;51.980;5.848;2023-09-19T04:30:53;14.10;99.90
42019;DHT22;27703;51.980;5.848;2023-09-19T04:33:18;14.10;99.90
42019;DHT22;27703;51.980;5.848;2023-09-19T04:35:44;14.10;99.90
42019;DHT22;27703;51.980;5.848;2023-09-19T04:38:09;14.10;99.90
42019;DHT22;27703;51.980;5.848;2023-09-19T04:40:35;14.10;99.90
42019;DHT22;27703;51.980;5.848;2023-09-19T04:43:01;14.10;99.90
42019;DHT22;27703;51.980;5.848;2023-09-19T04:45:27;14.10;99.90
42019;DHT22;27703;51.980;5.848;2023-09-19T04:47:53;14.00;99.90
42019;DHT22;27703;51.980;5.848;2023-09-19T04:50:20;14.00;99.90
42019;DHT22;27703;51.980;5.848;2023-09-19T04:52:50;14.00;99.90
42019;DHT22;27703;51.980;5.848;2023-09-19T04:55:17;14.00;99.90
42019;DHT22;27703;51.980;5.848;2023-09-19T04:57:48;14.00;99.90
42019;DHT22;27703;51.980;5.848;2023-09-19T05:00:17;14.00;99.90
42019;DHT22;27703;51.980;5.848;2023-09-19T05:02:44;14.00;99.90
42019;DHT22;27703;51.980;5.848;2023-09-19T05:05:10;14.00;99.90
42019;DHT22;27703;51.980;5.848;2023-09-19T05:07:41;14.00;99.90
42019;DHT22;27703;51.980;5.848;2023-09-19T05:10:07;14.00;99.90
42019;DHT22;27703;51.980;5.848;2023-09-19T05:12:34;14.00;99.90
42019;DHT22;27703;51.980;5.848;2023-09-19T05:15:02;14.00;99.90
42019;DHT22;27703;51.980;5.848;2023-09-19T05:17:28;14.00;99.90
42019;DHT22;27703;51.980;5.848;2023-09-19T05:19:53;14.00;99.90
42019;DHT22;27703;51.980;5.848;2023-09-19T05:22:19;14.00;99.90
42019;DHT22;27703;51.980;5.848;2023-09-19T05:24:44;14.00;99.90
42019;DHT22;27703;51.980;5.848;2023-09-19T05:27:16;14.10;99.90
42019;DHT22;27703;51.980;5.848;2023-09-19T05:29:43;14.10;99.90
42019;DHT22;27703;51.980;5.848;2023-09-19T05:32:10;14.10;99.90
42019;DHT22;27703;51.980;5.848;2023-09-19T05:34:36;14.10;99.90
42019;DHT22;27703;51.980;5.848;2023-09-19T05:37:02;14.10;99.90
42019;DHT22;27703;51.980;5.848;2023-09-19T05:39:27;14.10;99.90
42019;DHT22;27703;51.980;5.848;2023-09-19T05:41:53;14.20;99.90
42019;DHT22;27703;51.980;5.848;2023-09-19T05:44:18;14.10;99.90
42019;DHT22;27703;51.980;5.848;2023-09-19T05:46:44;14.20;99.90
42019;DHT22;27703;51.980;5.848;2023-09-19T05:49:11;14.20;99.90
42019;DHT22;27703;51.980;5.848;2023-09-19T05:51:37;14.30;99.90
42019;DHT22;27703;51.980;5.848;2023-09-19T05:54:02;14.30;99.90
42019;DHT22;27703;51.980;5.848;2023-09-19T05:56:30;14.30;99.90
42019;DHT22;27703;51.980;5.848;2023-09-19T05:58:56;14.30;99.90
42019;DHT22;27703;51.980;5.848;2023-09-19T06:01:22;14.30;99.90
42019;DHT22;27703;51.980;5.848;2023-09-19T06:03:48;14.30;99.90
42019;DHT22;27703;51.980;5.848;2023-09-19T06:06:14;14.30;99.90
42019;DHT22;27703;51.980;5.848;2023-09-19T06:08:39;14.30;99.90
42019;DHT22;27703;51.980;5.848;2023-09-19T06:11:05;14.30;99.90
42019;DHT22;27703;51.980;5.848;2023-09-19T06:13:32;14.40;99.90
42019;DHT22;27703;51.980;5.848;2023-09-19T06:15:59;14.40;99.90
42019;DHT22;27703;51.980;5.848;2023-09-19T06:18:28;14.40;99.90
42019;DHT22;27703;51.980;5.848;2023-09-19T06:20:55;14.40;99.90
42019;DHT22;27703;51.980;5.848;2023-09-19T06:23:21;14.40;99.90
42019;DHT22;27703;51.980;5.848;2023-09-19T06:25:46;14.50;99.90
42019;DHT22;27703;51.980;5.848;2023-09-19T06:28:12;14.50;99.90
42019;DHT22;27703;51.980;5.848;2023-09-19T06:30:38;14.50;99.90
42019;DHT22;27703;51.980;5.848;2023-09-19T06:33:07;14.50;99.90
42019;DHT22;27703;51.980;5.848;2023-09-19T06:35:33;14.50;99.90
42019;DHT22;27703;51.980;5.848;2023-09-19T06:38:02;14.60;99.90
42019;DHT22;27703;51.980;5.848;2023-09-19T06:40:28;14.60;99.90
42019;DHT22;27703;51.980;5.848;2023-09-19T06:42:54;14.60;99.90
42019;DHT22;27703;51.980;5.848;2023-09-19T06:45:20;14.60;99.90
42019;DHT22;27703;51.980;5.848;2023-09-19T06:47:47;14.70;99.90
42019;DHT22;27703;51.980;5.848;2023-09-19T06:50:19;14.70;99.90
42019;DHT22;27703;51.980;5.848;2023-09-19T06:52:47;14.70;99.90
42019;DHT22;27703;51.980;5.848;2023-09-19T06:55:15;14.80;99.90
42019;DHT22;27703;51.980;5.848;2023-09-19T06:57:42;14.80;99.90
42019;DHT22;27703;51.980;5.848;2023-09-19T07:00:09;14.80;99.90
42019;DHT22;27703;51.980;5.848;2023-09-19T07:02:55;14.90;99.90
42019;DHT22;27703;51.980;5.848;2023-09-19T07:05:21;14.90;99.90
42019;DHT22;27703;51.980;5.848;2023-09-19T07:07:47;14.90;99.90
42019;DHT22;27703;51.980;5.848;2023-09-19T07:10:12;15.00;99.90
42019;DHT22;27703;51.980;5.848;2023-09-19T07:12:38;14.90;99.90
42019;DHT22;27703;51.980;5.848;2023-09-19T07:15:04;15.00;99.90
42019;DHT22;27703;51.980;5.848;2023-09-19T07:17:31;15.00;99.90
42019;DHT22;27703;51.980;5.848;2023-09-19T07:19:58;15.00;99.90
42019;DHT22;27703;51.980;5.848;2023-09-19T07:22:25;15.10;99.90
42019;DHT22;27703;51.980;5.848;2023-09-19T07:24:51;15.10;99.90
42019;DHT22;27703;51.980;5.848;2023-09-19T07:27:17;15.10;99.90
42019;DHT22;27703;51.980;5.848;2023-09-19T07:29:42;15.20;99.90
42019;DHT22;27703;51.980;5.848;2023-09-19T07:32:08;15.30;99.90
42019;DHT22;27703;51.980;5.848;2023-09-19T07:34:35;15.40;99.90
42019;DHT22;27703;51.980;5.848;2023-09-19T07:37:01;15.40;99.90
42019;DHT22;27703;51.980;5.848;2023-09-19T07:39:28;15.50;99.90
42019;DHT22;27703;51.980;5.848;2023-09-19T07:41:53;15.50;99.90
42019;DHT22;27703;51.980;5.848;2023-09-19T07:44:19;15.60;99.90
42019;DHT22;27703;51.980;5.848;2023-09-19T07:46:45;15.60;99.90
42019;DHT22;27703;51.980;5.848;2023-09-19T07:49:11;15.60;99.90
42019;DHT22;27703;51.980;5.848;2023-09-19T07:51:36;15.70;99.90
42019;DHT22;27703;51.980;5.848;2023-09-19T07:54:02;15.70;99.90
42019;DHT22;27703;51.980;5.848;2023-09-19T07:56:29;15.80;99.90
42019;DHT22;27703;51.980;5.848;2023-09-19T07:58:54;15.80;99.90
42019;DHT22;27703;51.980;5.848;2023-09-19T08:01:20;15.90;99.90
42019;DHT22;27703;51.980;5.848;2023-09-19T08:03:49;15.90;99.90
42019;DHT22;27703;51.980;5.848;2023-09-19T08:06:14;16.00;99.90
42019;DHT22;27703;51.980;5.848;2023-09-19T08:08:40;16.00;99.90
42019;DHT22;27703;51.980;5.848;2023-09-19T08:11:06;16.10;99.90
42019;DHT22;27703;51.980;5.848;2023-09-19T08:13:41;16.10;99.90
42019;DHT22;27703;51.980;5.848;2023-09-19T08:16:09;16.10;99.90
42019;DHT22;27703;51.980;5.848;2023-09-19T08:18:36;16.20;99.90
42019;DHT22;27703;51.980;5.848;2023-09-19T08:21:02;16.20;99.90
42019;DHT22;27703;51.980;5.848;2023-09-19T08:23:28;16.30;99.90
42019;DHT22;27703;51.980;5.848;2023-09-19T08:25:57;16.40;99.90
42019;DHT22;27703;51.980;5.848;2023-09-19T08:28:23;16.40;99.90
42019;DHT22;27703;51.980;5.848;2023-09-19T08:30:50;16.40;99.90
42019;DHT22;27703;51.980;5.848;2023-09-19T08:33:16;16.50;99.90
42019;DHT22;27703;51.980;5.848;2023-09-19T08:35:42;16.50;99.90
42019;DHT22;27703;51.980;5.848;2023-09-19T08:38:09;16.70;99.90
42019;DHT22;27703;51.980;5.848;2023-09-19T08:40:39;16.70;99.90
42019;DHT22;27703;51.980;5.848;2023-09-19T08:43:07;16.70;99.90
42019;DHT22;27703;51.980;5.848;2023-09-19T08:45:33;16.70;99.90
42019;DHT22;27703;51.980;5.848;2023-09-19T08:48:23;16.80;99.90
42019;DHT22;27703;51.980;5.848;2023-09-19T08:51:06;16.90;99.90
42019;DHT22;27703;51.980;5.848;2023-09-19T08:53:58;17.00;99.90
42019;DHT22;27703;51.980;5.848;2023-09-19T08:56:30;17.00;99.90
42019;DHT22;27703;51.980;5.848;2023-09-19T08:59:05;17.00;99.90
42019;DHT22;27703;51.980;5.848;2023-09-19T09:01:33;17.10;99.90
42019;DHT22;27703;51.980;5.848;2023-09-19T09:04:01;17.10;99.90
42019;DHT22;27703;51.980;5.848;2023-09-19T09:06:27;17.10;99.90
42019;DHT22;27703;51.980;5.848;2023-09-19T09:08:53;17.10;99.90
42019;DHT22;27703;51.980;5.848;2023-09-19T09:11:20;17.20;99.90
42019;DHT22;27703;51.980;5.848;2023-09-19T09:13:47;17.30;99.90
42019;DHT22;27703;51.980;5.848;2023-09-19T09:16:14;17.30;99.90
42019;DHT22;27703;51.980;5.848;2023-09-19T09:18:42;17.30;99.90
42019;DHT22;27703;51.980;5.848;2023-09-19T09:21:09;17.40;99.90
42019;DHT22;27703;51.980;5.848;2023-09-19T09:23:35;17.50;99.90
42019;DHT22;27703;51.980;5.848;2023-09-19T09:26:00;17.50;99.90
42019;DHT22;27703;51.980;5.848;2023-09-19T09:28:31;17.50;99.90
42019;DHT22;27703;51.980;5.848;2023-09-19T09:30:59;17.60;99.90
42019;DHT22;27703;51.980;5.848;2023-09-19T09:33:25;17.60;99.90
42019;DHT22;27703;51.980;5.848;2023-09-19T09:38:22;17.50;99.90
42019;DHT22;27703;51.980;5.848;2023-09-19T09:40:53;17.60;99.90
42019;DHT22;27703;51.980;5.848;2023-09-19T09:43:27;17.70;99.90
42019;DHT22;27703;51.980;5.848;2023-09-19T09:46:20;17.80;99.90
42019;DHT22;27703;51.980;5.848;2023-09-19T09:48:47;18.00;99.90
42019;DHT22;27703;51.980;5.848;2023-09-19T09:51:33;18.10;99.90
42019;DHT22;27703;51.980;5.848;2023-09-19T09:54:15;18.30;99.90
42019;DHT22;27703;51.980;5.848;2023-09-19T09:56:58;18.40;99.90
42019;DHT22;27703;51.980;5.848;2023-09-19T09:59:51;18.30;99.90
42019;DHT22;27703;51.980;5.848;2023-09-19T10:02:20;18.30;99.90
42019;DHT22;27703;51.980;5.848;2023-09-19T10:04:51;18.40;99.90
42019;DHT22;27703;51.980;5.848;2023-09-19T10:07:31;18.40;99.90
42019;DHT22;27703;51.980;5.848;2023-09-19T10:10:15;18.50;99.90
42019;DHT22;27703;51.980;5.848;2023-09-19T10:12:47;18.50;99.90
42019;DHT22;27703;51.980;5.848;2023-09-19T10:15:16;18.60;99.90
42019;DHT22;27703;51.980;5.848;2023-09-19T10:17:43;18.60;99.90
42019;DHT22;27703;51.980;5.848;2023-09-19T10:20:18;18.70;99.90
42019;DHT22;27703;51.980;5.848;2023-09-19T10:23:07;18.80;99.90
42019;DHT22;27703;51.980;5.848;2023-09-19T10:25:40;18.80;99.90
42019;DHT22;27703;51.980;5.848;2023-09-19T10:28:11;18.90;99.90
42019;DHT22;27703;51.980;5.848;2023-09-19T10:30:38;19.00;99.90
42019;DHT22;27703;51.980;5.848;2023-09-19T10:33:09;19.00;99.90
42019;DHT22;27703;51.980;5.848;2023-09-19T10:35:39;19.00;99.90
42019;DHT22;27703;51.980;5.848;2023-09-19T10:38:06;19.10;99.90
42019;DHT22;27703;51.980;5.848;2023-09-19T10:40:33;19.10;99.90
42019;DHT22;27703;51.980;5.848;2023-09-19T10:43:04;19.10;99.80
42019;DHT22;27703;51.980;5.848;2023-09-19T10:45:34;19.10;99.80
42019;DHT22;27703;51.980;5.848;2023-09-19T10:48:01;19.10;99.90
42019;DHT22;27703;51.980;5.848;2023-09-19T10:50:33;19.20;99.90
42019;DHT22;27703;51.980;5.848;2023-09-19T10:53:04;19.10;99.90
42019;DHT22;27703;51.980;5.848;2023-09-19T10:55:33;19.00;99.90
42019;DHT22;27703;51.980;5.848;2023-09-19T10:58:01;18.90;99.90
42019;DHT22;27703;51.980;5.848;2023-09-19T11:00:30;18.90;99.90
42019;DHT22;27703;51.980;5.848;2023-09-19T11:05:41;18.90;99.90
42019;DHT22;27703;51.980;5.848;2023-09-19T11:08:07;18.90;99.90
42019;DHT22;27703;51.980;5.848;2023-09-19T11:10:46;18.90;99.90
42019;DHT22;27703;51.980;5.848;2023-09-19T11:13:26;18.80;99.90
42019;DHT22;27703;51.980;5.848;2023-09-19T11:26:48;18.90;99.90
42019;DHT22;27703;51.980;5.848;2023-09-19T11:29:30;18.90;99.90
42019;DHT22;27703;51.980;5.848;2023-09-19T11:31:57;18.80;99.90
42019;DHT22;27703;51.980;5.848;2023-09-19T11:40:10;18.70;99.90
42019;DHT22;27703;51.980;5.848;2023-09-19T11:42:42;18.70;99.90
42019;DHT22;27703;51.980;5.848;2023-09-19T11:48:16;18.80;99.90
42019;DHT22;27703;51.980;5.848;2023-09-19T11:50:47;19.00;99.80
42019;DHT22;27703;51.980;5.848;2023-09-19T11:53:13;19.00;99.90
42019;DHT22;27703;51.980;5.848;2023-09-19T11:55:42;19.10;99.60
42019;DHT22;27703;51.980;5.848;2023-09-19T11:58:09;19.20;99.80
42019;DHT22;27703;51.980;5.848;2023-09-19T12:00:35;19.20;99.50
42019;DHT22;27703;51.980;5.848;2023-09-19T12:03:10;19.30;99.40
42019;DHT22;27703;51.980;5.848;2023-09-19T12:05:37;19.30;99.20
42019;DHT22;27703;51.980;5.848;2023-09-19T12:08:04;19.30;99.20
42019;DHT22;27703;51.980;5.848;2023-09-19T12:10:32;19.40;99.40
42019;DHT22;27703;51.980;5.848;2023-09-19T12:12:58;19.60;99.40
42019;DHT22;27703;51.980;5.848;2023-09-19T12:15:25;19.60;98.80
42019;DHT22;27703;51.980;5.848;2023-09-19T12:18:00;19.70;98.80
42019;DHT22;27703;51.980;5.848;2023-09-19T12:20:43;19.70;98.50
42019;DHT22;27703;51.980;5.848;2023-09-19T12:23:15;19.80;98.30
42019;DHT22;27703;51.980;5.848;2023-09-19T12:25:42;19.90;98.20
42019;DHT22;27703;51.980;5.848;2023-09-19T12:28:11;20.10;98.60
42019;DHT22;27703;51.980;5.848;2023-09-19T12:30:37;20.30;98.50
42019;DHT22;27703;51.980;5.848;2023-09-19T12:33:18;20.40;97.80
42019;DHT22;27703;51.980;5.848;2023-09-19T12:35:51;20.30;97.40
42019;DHT22;27703;51.980;5.848;2023-09-19T12:38:27;20.10;97.70
42019;DHT22;27703;51.980;5.848;2023-09-19T12:40:55;19.90;97.80
42019;DHT22;27703;51.980;5.848;2023-09-19T12:43:22;19.80;98.00
42019;DHT22;27703;51.980;5.848;2023-09-19T12:45:48;19.60;98.10
42019;DHT22;27703;51.980;5.848;2023-09-19T12:48:32;19.50;98.20
42019;DHT22;27703;51.980;5.848;2023-09-19T12:51:06;19.50;98.20
42019;DHT22;27703;51.980;5.848;2023-09-19T12:53:40;19.40;97.90
42019;DHT22;27703;51.980;5.848;2023-09-19T12:56:08;19.40;98.20
42019;DHT22;27703;51.980;5.848;2023-09-19T12:58:51;19.40;98.30
42019;DHT22;27703;51.980;5.848;2023-09-19T13:01:19;19.40;97.90
42019;DHT22;27703;51.980;5.848;2023-09-19T13:03:44;19.30;98.20
42019;DHT22;27703;51.980;5.848;2023-09-19T13:06:11;19.30;98.30
42019;DHT22;27703;51.980;5.848;2023-09-19T13:08:39;19.30;98.40
42019;DHT22;27703;51.980;5.848;2023-09-19T13:11:12;19.30;98.60
42019;DHT22;27703;51.980;5.848;2023-09-19T13:13:44;19.20;98.70
42019;DHT22;27703;51.980;5.848;2023-09-19T13:16:11;19.30;98.80
42019;DHT22;27703;51.980;5.848;2023-09-19T13:18:47;19.30;98.90
42019;DHT22;27703;51.980;5.848;2023-09-19T13:21:16;19.30;99.00
42019;DHT22;27703;51.980;5.848;2023-09-19T13:23:53;19.30;98.70
42019;DHT22;27703;51.980;5.848;2023-09-19T13:26:21;19.30;98.70
42019;DHT22;27703;51.980;5.848;2023-09-19T13:28:48;19.30;98.80
42019;DHT22;27703;51.980;5.848;2023-09-19T13:31:14;19.30;98.70
42019;DHT22;27703;51.980;5.848;2023-09-19T13:33:47;19.30;98.70
42019;DHT22;27703;51.980;5.848;2023-09-19T13:36:13;19.20;98.60
42019;DHT22;27703;51.980;5.848;2023-09-19T13:38:42;19.20;98.70
42019;DHT22;27703;51.980;5.848;2023-09-19T13:41:12;19.20;98.70
42019;DHT22;27703;51.980;5.848;2023-09-19T13:43:38;19.20;98.70
42019;DHT22;27703;51.980;5.848;2023-09-19T13:46:05;19.20;98.70
42019;DHT22;27703;51.980;5.848;2023-09-19T13:48:33;19.20;98.70
42019;DHT22;27703;51.980;5.848;2023-09-19T13:51:01;19.20;98.80
42019;DHT22;27703;51.980;5.848;2023-09-19T13:53:27;19.20;99.00
42019;DHT22;27703;51.980;5.848;2023-09-19T13:55:53;19.20;98.90
42019;DHT22;27703;51.980;5.848;2023-09-19T13:58:18;19.20;99.00
42019;DHT22;27703;51.980;5.848;2023-09-19T14:00:44;19.30;99.00
42019;DHT22;27703;51.980;5.848;2023-09-19T14:03:09;19.30;98.70
42019;DHT22;27703;51.980;5.848;2023-09-19T14:05:36;19.40;98.80
42019;DHT22;27703;51.980;5.848;2023-09-19T14:08:03;19.50;98.50
42019;DHT22;27703;51.980;5.848;2023-09-19T14:10:29;19.60;98.40
42019;DHT22;27703;51.980;5.848;2023-09-19T14:12:57;19.80;98.20
42019;DHT22;27703;51.980;5.848;2023-09-19T14:15:26;19.80;98.30
42019;DHT22;27703;51.980;5.848;2023-09-19T14:17:58;19.80;98.20
42019;DHT22;27703;51.980;5.848;2023-09-19T14:20:24;19.90;98.20
42019;DHT22;27703;51.980;5.848;2023-09-19T14:22:54;19.90;98.40
42019;DHT22;27703;51.980;5.848;2023-09-19T14:25:20;19.80;98.20
42019;DHT22;27703;51.980;5.848;2023-09-19T14:27:47;19.80;98.30
42019;DHT22;27703;51.980;5.848;2023-09-19T14:30:13;19.80;98.00
42019;DHT22;27703;51.980;5.848;2023-09-19T14:32:39;19.70;98.00
42019;DHT22;27703;51.980;5.848;2023-09-19T14:35:05;19.70;98.10
42019;DHT22;27703;51.980;5.848;2023-09-19T14:37:31;19.60;98.40
42019;DHT22;27703;51.980;5.848;2023-09-19T14:39:57;19.60;98.40
42019;DHT22;27703;51.980;5.848;2023-09-19T14:42:22;19.60;98.40
42019;DHT22;27703;51.980;5.848;2023-09-19T14:44:48;19.50;98.20
42019;DHT22;27703;51.980;5.848;2023-09-19T14:47:15;19.50;98.20
42019;DHT22;27703;51.980;5.848;2023-09-19T14:49:42;19.50;98.30
42019;DHT22;27703;51.980;5.848;2023-09-19T14:52:09;19.50;98.60
42019;DHT22;27703;51.980;5.848;2023-09-19T14:54:35;19.60;98.70
42019;DHT22;27703;51.980;5.848;2023-09-19T14:57:03;19.50;98.60
42019;DHT22;27703;51.980;5.848;2023-09-19T14:59:33;19.40;98.80
42019;DHT22;27703;51.980;5.848;2023-09-19T15:02:02;19.40;98.80
42019;DHT22;27703;51.980;5.848;2023-09-19T15:04:29;19.40;98.90
42019;DHT22;27703;51.980;5.848;2023-09-19T15:06:54;19.40;98.70
42019;DHT22;27703;51.980;5.848;2023-09-19T15:09:24;19.30;98.80
42019;DHT22;27703;51.980;5.848;2023-09-19T15:11:53;19.30;99.20
42019;DHT22;27703;51.980;5.848;2023-09-19T15:14:19;19.30;99.00
42019;DHT22;27703;51.980;5.848;2023-09-19T15:16:44;19.30;99.00
42019;DHT22;27703;51.980;5.848;2023-09-19T15:19:10;19.30;99.10
42019;DHT22;27703;51.980;5.848;2023-09-19T15:21:36;19.20;99.10
42019;DHT22;27703;51.980;5.848;2023-09-19T15:24:03;19.20;99.20
42019;DHT22;27703;51.980;5.848;2023-09-19T15:26:30;19.20;99.30
42019;DHT22;27703;51.980;5.848;2023-09-19T15:28:56;19.20;99.30
42019;DHT22;27703;51.980;5.848;2023-09-19T15:31:22;19.20;99.30
42019;DHT22;27703;51.980;5.848;2023-09-19T15:33:47;19.20;99.30
42019;DHT22;27703;51.980;5.848;2023-09-19T15:36:15;19.10;99.30
42019;DHT22;27703;51.980;5.848;2023-09-19T15:39:05;19.10;99.30
42019;DHT22;27703;51.980;5.848;2023-09-19T15:41:38;19.10;99.50
42019;DHT22;27703;51.980;5.848;2023-09-19T15:44:10;19.10;99.70
42019;DHT22;27703;51.980;5.848;2023-09-19T15:46:36;19.10;99.40
42019;DHT22;27703;51.980;5.848;2023-09-19T15:49:03;19.10;99.40
42019;DHT22;27703;51.980;5.848;2023-09-19T15:51:29;19.10;99.50
42019;DHT22;27703;51.980;5.848;2023-09-19T15:53:56;19.10;99.50
42019;DHT22;27703;51.980;5.848;2023-09-19T15:56:22;19.10;99.60
42019;DHT22;27703;51.980;5.848;2023-09-19T15:58:50;19.10;99.60
42019;DHT22;27703;51.980;5.848;2023-09-19T16:01:16;19.10;99.70
42019;DHT22;27703;51.980;5.848;2023-09-19T16:03:44;19.00;99.70
42019;DHT22;27703;51.980;5.848;2023-09-19T16:06:20;19.10;99.80
42019;DHT22;27703;51.980;5.848;2023-09-19T16:08:49;19.10;99.90
42019;DHT22;27703;51.980;5.848;2023-09-19T16:11:16;19.00;99.90
42019;DHT22;27703;51.980;5.848;2023-09-19T16:13:43;19.10;99.90
42019;DHT22;27703;51.980;5.848;2023-09-19T16:16:12;19.10;99.90
42019;DHT22;27703;51.980;5.848;2023-09-19T16:18:51;19.10;99.90
42019;DHT22;27703;51.980;5.848;2023-09-19T16:21:18;19.10;99.90